createdAt,value
2022-12-09T00:05:32.889Z,12
2022-12-09T00:15:39.009Z,14
2022-12-09T00:25:44.124Z,19
2022-12-09T00:35:50.318Z,23
2022-12-09T00:45:55.939Z,17
2022-12-09T00:56:01.251Z,8
2022-12-09T01:06:06.350Z,7
2022-12-09T01:16:12.978Z,9
2022-12-09T01:26:17.977Z,10
2022-12-09T01:36:22.726Z,8
2022-12-09T01:46:31.528Z,10
2022-12-09T01:56:36.573Z,9
2022-12-09T02:06:43.523Z,11
2022-12-09T02:16:51.573Z,14
2022-12-09T02:26:55.796Z,11
2022-12-09T02:37:03.091Z,13
2022-12-09T02:47:08.748Z,14
2022-12-09T02:57:12.345Z,10
2022-12-09T03:07:18.208Z,12
2022-12-09T03:17:26.070Z,11
2022-12-09T03:27:30.361Z,13
2022-12-09T03:37:37.488Z,12
2022-12-09T03:47:44.495Z,18
2022-12-09T03:57:55.152Z,15
2022-12-09T04:07:55.668Z,16
2022-12-09T04:18:00.672Z,18
2022-12-09T04:28:06.696Z,19
2022-12-09T04:38:14.169Z,18
2022-12-09T04:48:21.829Z,17
2022-12-09T04:58:26.184Z,17
2022-12-09T05:08:33.631Z,24
2022-12-09T05:18:39.699Z,27
2022-12-09T05:28:44.373Z,20
2022-12-09T05:38:48.217Z,26
2022-12-09T05:48:55.697Z,25
2022-12-09T05:58:58.990Z,30
2022-12-09T06:09:06.579Z,33
2022-12-09T06:19:14.617Z,27
2022-12-09T06:29:18.535Z,29
2022-12-09T06:39:27.346Z,24
2022-12-09T06:49:36.279Z,25
2022-12-09T06:59:39.936Z,31
2022-12-09T07:09:44.954Z,24
2022-12-09T07:19:50.063Z,24
2022-12-09T07:29:54.833Z,29
2022-12-09T07:40:01.084Z,30
2022-12-09T07:50:07.624Z,33
2022-12-09T08:00:14.718Z,27
2022-12-09T08:10:20.681Z,26
2022-12-09T08:20:29.269Z,29
2022-12-09T08:30:32.761Z,27
2022-12-09T08:40:36.937Z,30
2022-12-09T08:50:45.449Z,30
2022-12-09T09:00:51.629Z,36
2022-12-09T09:10:58.598Z,31
2022-12-09T09:21:02.574Z,34
2022-12-09T09:31:07.522Z,34
2022-12-09T09:41:14.631Z,33
2022-12-09T09:51:21.166Z,30
2022-12-09T10:01:26.729Z,32
2022-12-09T10:11:32.965Z,30
2022-12-09T10:21:37.432Z,32
2022-12-09T10:31:44.499Z,30
2022-12-09T10:41:48.875Z,34
2022-12-09T10:51:55.732Z,32
2022-12-09T11:02:01.910Z,55
2022-12-09T11:12:08.723Z,30
2022-12-09T11:22:13.756Z,27
2022-12-09T11:32:26.215Z,23
2022-12-09T11:42:29.374Z,20
2022-12-09T11:52:38.663Z,18
2022-12-09T12:02:44.841Z,21
2022-12-09T12:12:49.019Z,21
2022-12-09T12:22:55.241Z,30
2022-12-09T12:33:41.120Z,23
2022-12-09T12:44:09.388Z,20
2022-12-09T12:54:14.785Z,21
2022-12-09T13:04:20.864Z,17
2022-12-09T13:14:27.919Z,17
2022-12-09T13:24:34.765Z,18
2022-12-09T13:34:41.244Z,19
2022-12-09T13:44:48.306Z,20
2022-12-09T13:54:51.712Z,22
2022-12-09T14:04:58.703Z,17
2022-12-09T14:15:03.746Z,17
2022-12-09T14:25:09.745Z,17
2022-12-09T14:35:13.414Z,17
2022-12-09T14:45:19.971Z,18
2022-12-09T14:53:26.456Z,19
2022-12-09T15:04:26.795Z,18
2022-12-09T15:14:19.643Z,19
2022-12-09T15:24:25.260Z,19
2022-12-09T15:34:28.764Z,23
2022-12-09T15:44:41.736Z,20
2022-12-09T15:54:42.019Z,25
2022-12-09T16:04:45.560Z,27
2022-12-09T16:14:52.456Z,27
2022-12-09T16:25:21.194Z,23
2022-12-09T16:35:15.472Z,31
2022-12-09T16:45:20.434Z,29
2022-12-09T16:55:28.260Z,25
2022-12-09T17:05:33.406Z,23
2022-12-09T17:15:40.571Z,25
2022-12-09T17:25:47.139Z,24
2022-12-09T17:36:00.252Z,27
2022-12-09T17:45:57.250Z,24
2022-12-09T17:56:02.566Z,26
2022-12-09T18:06:08.733Z,26
2022-12-09T18:16:14.366Z,35
2022-12-09T18:26:18.290Z,28
2022-12-09T18:36:23.746Z,23
2022-12-09T18:46:28.523Z,26
2022-12-09T18:56:33.612Z,30
2022-12-09T19:06:37.667Z,31
2022-12-09T19:16:50.725Z,30
2022-12-09T19:26:55.761Z,33
2022-12-09T19:37:03.623Z,31
2022-12-09T19:47:09.122Z,29
2022-12-09T19:57:14.165Z,27
2022-12-09T20:07:19.832Z,30
2022-12-09T20:17:23.337Z,30
2022-12-09T20:27:30.504Z,28
2022-12-09T20:37:35.145Z,27
2022-12-09T20:47:40.739Z,26
2022-12-09T20:57:46.860Z,26
2022-12-09T21:07:51.996Z,26
2022-12-09T21:17:58.281Z,24
2022-12-09T21:28:03.628Z,21
2022-12-09T21:38:10.075Z,22
2022-12-09T21:48:15.532Z,21
2022-12-09T21:58:22.986Z,22
2022-12-09T22:08:30.591Z,25
2022-12-09T22:18:35.364Z,23
2022-12-09T22:29:27.384Z,24
2022-12-09T22:39:32.130Z,29
2022-12-09T22:49:39.610Z,27
2022-12-09T22:59:46.963Z,27
2022-12-09T23:09:53.942Z,33
2022-12-09T23:19:59.515Z,28
2022-12-09T23:30:03.371Z,29
2022-12-09T23:40:10.614Z,30
2022-12-09T23:50:15.065Z,31
